Terminal Aerodrome Forecast
Issued by NWS

Home | Current Version | Previous Version | Text Only | Print | Product List | Glossary Off
Versions: 1 2 3 4 5 6 7 8 9 10 11 12 13 14 15 16 17 18 19 20

000
FTUS43 KMPX 270520
TAFAXN
TAF
KAXN 270520Z 2706/2806 01008KT 6SM BR OVC008
     FM271200 13003KT P6SM OVC015
     FM271700 16009KT P6SM FEW015 SCT200=

USA.gov is the U.S. government's official web portal to all federal, state and local government web resources and services.